Time;durP1;ratioP1;P1;durP2;ratioP2;P2;SDS_P1;SDS_P2;PMS_P1;PMS_P2;Temp;Humidity;BMP_temperature;BMP_pressure;BME280_temperature;BME280_humidity;BME280_pressure;Samples;Min_cycle;Max_cycle;Signal;HPM_P1;HPM_P2
2022/06/05 00:00:20;;;;;;;6.60;6.30;;;;;;;20.97;63.47;100528.44;5065142;28;20044;-59
2022/06/05 00:03:22;;;;;;;6.50;6.20;;;;;;;20.98;62.88;100530.88;5052669;28;20033;-59
2022/06/05 00:06:11;;;;;;;6.70;6.40;;;;;;;20.84;63.96;100523.34;5051810;28;20036;-60
2022/06/05 00:08:55;;;;;;;6.70;6.40;;;;;;;20.89;63.31;100510.78;5052838;28;20033;-60
2022/06/05 00:11:23;;;;;;;6.50;6.20;;;;;;;20.90;63.54;100509.72;5040894;28;20029;-61
2022/06/05 00:13:52;;;;;;;6.55;6.25;;;;;;;20.82;64.19;100503.91;5054569;28;20029;-61
2022/06/05 00:16:24;;;;;;;6.35;6.05;;;;;;;20.78;64.50;100502.72;5055180;28;20032;-61
2022/06/05 00:18:50;;;;;;;6.82;6.53;;;;;;;20.82;63.89;100503.91;5040073;28;20122;-61
2022/06/05 00:21:16;;;;;;;6.75;6.45;;;;;;;20.76;64.03;100496.78;5054319;28;20105;-60
2022/06/05 00:23:41;;;;;;;6.45;6.15;;;;;;;20.66;64.54;100494.72;5052699;28;20025;-61
2022/06/05 00:26:36;;;;;;;6.70;6.40;;;;;;;20.64;64.55;100502.25;5050385;28;20061;-61
2022/06/05 00:29:25;;;;;;;6.38;6.07;;;;;;;20.58;64.82;100498.63;5047311;28;20029;-61
2022/06/05 00:32:21;;;;;;;6.60;6.30;;;;;;;20.57;64.92;100505.06;5052943;28;20036;-60
2022/06/05 00:34:46;;;;;;;6.72;6.43;;;;;;;20.65;64.53;100503.88;5053872;28;20025;-61
2022/06/05 00:37:36;;;;;;;6.80;6.50;;;;;;;20.61;64.58;100498.13;5052456;28;20434;-61
2022/06/05 00:40:11;;;;;;;6.80;6.50;;;;;;;20.63;64.08;100492.50;5041909;28;20082;-61
2022/06/05 00:42:36;;;;;;;;;;;;;;;20.63;64.08;100489.78;5053147;28;20029;-59
2022/06/05 00:45:08;;;;;;;6.78;6.47;;;;;;;20.59;63.99;100481.38;5053202;28;19923;-60
2022/06/05 00:47:34;;;;;;;6.60;6.30;;;;;;;20.56;64.06;100481.84;5053543;28;20025;-59
2022/06/05 00:50:01;;;;;;;6.80;6.50;;;;;;;20.60;63.78;100482.22;5041952;28;20514;-61
2022/06/05 00:52:30;;;;;;;6.40;6.10;;;;;;;20.56;63.81;100479.16;5047007;28;20033;-61
2022/06/05 00:54:56;;;;;;;6.43;6.13;;;;;;;20.53;63.73;100484.22;5053232;28;20017;-60
2022/06/05 00:57:22;;;;;;;6.43;6.13;;;;;;;20.54;63.44;100469.69;5044218;28;20025;-60
2022/06/05 00:59:50;;;;;;;6.55;6.25;;;;;;;20.64;62.77;100476.09;5047904;28;20110;-59
2022/06/05 01:02:17;;;;;;;6.60;6.30;;;;;;;20.60;63.20;100466.03;5053502;28;20097;-59
2022/06/05 01:04:46;;;;;;;6.18;5.97;;;;;;;20.57;62.94;100470.03;5051982;28;20036;-59
2022/06/05 01:07:12;;;;;;;6.55;6.25;;;;;;;20.57;62.93;100471.94;5042990;28;20530;-60
2022/06/05 01:09:41;;;;;;;6.30;6.05;;;;;;;20.60;62.89;100469.53;5053946;28;20025;-60
2022/06/05 01:12:06;;;;;;;6.13;5.93;;;;;;;20.66;62.72;100462.38;5052813;28;20075;-59
2022/06/05 01:14:56;;;;;;;6.43;6.13;;;;;;;20.60;63.15;100463.34;5052239;28;20504;-61
2022/06/05 01:17:22;;;;;;;6.22;6.03;;;;;;;20.48;63.58;100463.38;5052322;28;20035;-61
2022/06/05 01:20:12;;;;;;;6.55;6.25;;;;;;;20.56;63.04;100452.22;5053142;28;20025;-61
2022/06/05 01:23:16;;;;;;;6.60;6.30;;;;;;;20.55;63.03;100447.88;5053407;28;20369;-61
2022/06/05 01:26:23;;;;;;;6.43;6.13;;;;;;;20.56;63.09;100452.22;5057768;28;20439;-60
2022/06/05 01:29:05;;;;;;;6.85;6.55;;;;;;;20.64;62.69;100449.16;5052612;28;20036;-60
2022/06/05 01:31:48;;;;;;;6.60;6.30;;;;;;;20.66;62.45;100441.63;5042180;28;20029;-61
2022/06/05 01:34:19;;;;;;;6.55;6.25;;;;;;;20.65;62.83;100434.59;5050262;28;20481;-61
2022/06/05 01:36:50;;;;;;;6.50;6.20;;;;;;;20.65;63.27;100440.00;5052796;28;20028;-61
2022/06/05 01:39:24;;;;;;;6.28;6.05;;;;;;;20.58;63.24;100444.72;5052319;28;20029;-60
2022/06/05 01:41:54;;;;;;;6.50;6.20;;;;;;;20.64;62.91;100441.06;5053886;28;20028;-61
2022/06/05 01:44:36;;;;;;;6.57;6.28;;;;;;;20.58;63.05;100433.94;5048463;28;20095;-61
2022/06/05 01:47:10;;;;;;;6.70;6.40;;;;;;;20.66;62.61;100441.63;5049826;28;20489;-60
2022/06/05 01:49:46;;;;;;;6.60;6.30;;;;;;;20.81;62.47;100448.34;5050847;28;20377;-61
2022/06/05 01:52:14;;;;;;;6.55;6.25;;;;;;;20.88;62.01;100443.59;5052477;28;20029;-61
2022/06/05 01:54:50;;;;;;;6.60;6.30;;;;;;;20.87;63.10;100440.09;5052327;28;20056;-59
2022/06/05 01:57:19;;;;;;;6.53;6.22;;;;;;;20.83;63.24;100430.03;5052269;28;20111;-60
2022/06/05 01:59:49;;;;;;;6.47;6.18;;;;;;;20.79;62.96;100427.03;5052406;28;20029;-61
2022/06/05 02:02:22;;;;;;;6.45;6.15;;;;;;;20.77;63.07;100423.72;5043451;28;20030;-61
2022/06/05 02:04:52;;;;;;;6.47;6.18;;;;;;;20.75;63.19;100420.47;5051014;28;20029;-61
2022/06/05 02:07:55;;;;;;;6.57;6.28;;;;;;;20.74;63.79;100420.72;5039385;28;20055;-60
2022/06/05 02:10:21;;;;;;;6.45;6.15;;;;;;;20.70;64.30;100420.38;5019266;28;20029;-59
2022/06/05 02:12:47;;;;;;;6.50;6.20;;;;;;;20.72;64.54;100417.47;5052187;28;20468;-60
2022/06/05 02:15:12;;;;;;;6.47;6.18;;;;;;;20.70;64.50;100415.81;5049456;28;20037;-60
2022/06/05 02:17:39;;;;;;;6.55;6.25;;;;;;;20.67;64.37;100419.00;5045663;28;20468;-61
2022/06/05 02:20:07;;;;;;;6.80;6.50;;;;;;;20.65;64.54;100426.53;5052000;28;20108;-60
2022/06/05 02:22:41;;;;;;;6.50;6.20;;;;;;;20.65;65.25;100429.22;5045913;28;20029;-61
2022/06/05 02:25:09;;;;;;;6.60;6.30;;;;;;;20.65;65.60;100444.56;5047773;28;20048;-61
2022/06/05 02:27:34;;;;;;;6.70;6.40;;;;;;;20.59;66.29;100445.53;5051973;28;20040;-61
2022/06/05 02:30:00;;;;;;;6.60;6.30;;;;;;;20.58;66.75;100452.00;5051798;28;20705;-60
2022/06/05 02:32:38;;;;;;;6.57;6.28;;;;;;;20.55;66.54;100449.75;5054931;28;20024;-61
2022/06/05 02:35:15;;;;;;;6.47;6.18;;;;;;;20.55;67.57;100455.97;5051801;28;20107;-59
2022/06/05 02:37:50;;;;;;;6.60;6.30;;;;;;;20.45;68.22;100455.78;5051577;28;20021;-60
2022/06/05 02:40:24;;;;;;;6.80;6.50;;;;;;;20.46;67.92;100456.63;5048750;28;20067;-60
2022/06/05 02:42:59;;;;;;;6.43;6.13;;;;;;;20.40;68.67;100448.38;5047340;28;20100;-61
2022/06/05 02:45:35;;;;;;;6.57;6.28;;;;;;;20.46;68.19;100440.44;5051217;28;20103;-61
2022/06/05 02:48:15;;;;;;;6.57;6.28;;;;;;;20.50;67.75;100434.34;5051086;28;20025;-61
2022/06/05 02:50:43;;;;;;;6.50;6.20;;;;;;;20.57;67.84;100436.88;5049504;28;20082;-61
2022/06/05 02:53:11;;;;;;;6.53;6.22;;;;;;;20.51;68.68;100438.66;5051455;28;20025;-61
2022/06/05 02:55:37;;;;;;;6.80;6.50;;;;;;;20.52;69.15;100451.06;5049563;28;20033;-60
2022/06/05 02:58:04;;;;;;;6.20;6.00;;;;;;;20.53;69.67;100449.19;5045527;28;20092;-60
2022/06/05 03:00:32;;;;;;;6.57;6.28;;;;;;;20.60;69.99;100455.25;5047331;28;20025;-61
2022/06/05 03:05:43;;;;;;;6.45;6.15;;;;;;;20.72;70.63;100465.97;5052224;28;20043;-61
2022/06/05 03:08:12;;;;;;;6.50;6.20;;;;;;;20.79;70.73;100466.66;5051420;28;20619;-60
2022/06/05 03:10:38;;;;;;;6.25;6.05;;;;;;;20.80;71.06;100462.88;5051682;28;20396;-61
2022/06/05 03:13:04;;;;;;;6.60;6.30;;;;;;;20.82;71.25;100458.06;5050554;28;20033;-61
2022/06/05 03:15:30;;;;;;;6.20;6.00;;;;;;;20.92;70.84;100459.03;5051321;28;20053;-60
2022/06/05 03:17:56;;;;;;;6.60;6.30;;;;;;;20.93;70.91;100463.41;5047500;28;20068;-60
2022/06/05 03:20:21;;;;;;;6.50;6.20;;;;;;;20.99;70.82;100480.44;5043302;28;20103;-61
2022/06/05 03:22:47;;;;;;;6.50;6.20;;;;;;;21.02;70.54;100479.97;5051617;28;20079;-60
2022/06/05 03:25:19;;;;;;;6.45;6.15;;;;;;;21.04;70.33;100483.25;5051348;28;20041;-60
2022/06/05 03:27:44;;;;;;;6.60;6.30;;;;;;;21.00;70.80;100487.47;5051510;28;20025;-61
2022/06/05 03:30:11;;;;;;;6.22;6.00;;;;;;;21.05;70.53;100484.88;5050544;28;20047;-60
2022/06/05 03:32:36;;;;;;;6.32;6.03;;;;;;;21.06;70.79;100475.72;5051580;28;20452;-59
2022/06/05 03:35:02;;;;;;;6.50;6.20;;;;;;;21.10;71.04;100487.66;5051153;28;20100;-60
2022/06/05 03:37:27;;;;;;;6.70;6.40;;;;;;;21.24;70.85;100483.56;5042617;28;20035;-60
2022/06/05 03:39:53;;;;;;;6.57;6.28;;;;;;;21.29;71.13;100484.75;5056373;28;20077;-59
2022/06/05 03:42:19;;;;;;;6.47;6.18;;;;;;;21.50;70.48;100495.59;5048131;28;20032;-60
2022/06/05 03:44:44;;;;;;;6.60;6.30;;;;;;;21.73;70.08;100497.25;5049120;28;20049;-60
2022/06/05 03:47:12;;;;;;;6.60;6.30;;;;;;;21.88;69.81;100491.25;5048735;28;20033;-61
2022/06/05 03:49:38;;;;;;;6.60;6.30;;;;;;;22.14;68.87;100502.44;5033257;28;20074;-61
2022/06/05 03:52:04;;;;;;;6.40;6.10;;;;;;;22.26;69.47;100501.25;5051196;28;20478;-60
2022/06/05 03:54:31;;;;;;;6.47;6.18;;;;;;;22.06;70.75;100499.06;5046934;28;20060;-61
2022/06/05 03:56:57;;;;;;;6.70;6.40;;;;;;;22.31;70.67;100493.16;5060864;28;20384;-61
2022/06/05 03:59:22;;;;;;;6.68;6.38;;;;;;;22.99;69.23;100507.16;5061432;28;20028;-60
2022/06/05 04:01:48;;;;;;;6.60;6.30;;;;;;;22.54;72.24;100492.06;5054702;28;20033;-61
2022/06/05 04:04:14;;;;;;;6.50;6.20;;;;;;;22.21;77.74;100511.16;5053725;28;20033;-61
2022/06/05 04:06:39;;;;;;;6.60;6.30;;;;;;;21.84;80.80;100511.75;5052198;28;20025;-60
2022/06/05 04:09:07;;;;;;;6.60;6.30;;;;;;;21.48;84.78;100513.09;5054513;28;20534;-62
2022/06/05 04:11:36;;;;;;;6.55;6.25;;;;;;;21.47;87.63;100514.19;5054171;28;20460;-61
2022/06/05 04:14:02;;;;;;;6.75;6.45;;;;;;;21.71;87.31;100515.59;5056662;28;20032;-61
2022/06/05 04:16:29;;;;;;;6.65;6.35;;;;;;;21.77;88.60;100522.72;5055867;28;20016;-61
2022/06/05 04:18:56;;;;;;;6.57;6.28;;;;;;;21.65;90.80;100524.69;5042685;28;20091;-60
2022/06/05 04:21:25;;;;;;;6.60;6.30;;;;;;;21.76;91.06;100529.19;5051443;28;20059;-61
2022/06/05 04:23:52;;;;;;;6.80;6.50;;;;;;;21.86;90.65;100517.69;5057196;28;20035;-60
2022/06/05 04:26:21;;;;;;;6.80;6.50;;;;;;;21.97;89.96;100526.78;5054035;28;20017;-61
2022/06/05 04:28:47;;;;;;;6.53;6.22;;;;;;;22.26;87.78;100524.75;5053865;28;20029;-60
2022/06/05 04:31:35;;;;;;;6.70;6.40;;;;;;;22.54;86.52;100526.41;5061554;28;20029;-61
2022/06/05 04:34:03;;;;;;;6.68;6.38;;;;;;;22.67;85.12;100520.59;5053619;28;20028;-61
2022/06/05 04:36:29;;;;;;;6.68;6.38;;;;;;;22.33;85.90;100531.59;5053810;28;20057;-61
2022/06/05 04:38:55;;;;;;;6.50;6.20;;;;;;;21.86;87.94;100531.19;5052941;28;20029;-61
2022/06/05 04:41:22;;;;;;;6.80;6.50;;;;;;;22.14;86.18;100532.97;5053661;28;20025;-59
2022/06/05 04:43:49;;;;;;;6.72;6.43;;;;;;;21.86;86.76;100535.78;5048512;28;20082;-60
2022/06/05 04:46:16;;;;;;;6.70;6.40;;;;;;;21.78;86.11;100545.13;5042616;28;20040;-61
2022/06/05 04:48:41;;;;;;;6.65;6.35;;;;;;;22.00;84.72;100542.47;5048215;28;20034;-60
2022/06/05 04:51:09;;;;;;;6.60;6.30;;;;;;;22.04;84.92;100543.63;5043349;28;20373;-61
2022/06/05 04:53:35;;;;;;;6.70;6.40;;;;;;;22.27;83.37;100548.81;5053633;28;20082;-61
2022/06/05 04:56:14;;;;;;;6.50;6.20;;;;;;;22.44;83.61;100550.63;5052618;28;20113;-61
2022/06/05 04:58:39;;;;;;;6.53;6.22;;;;;;;22.80;81.74;100551.84;5053427;28;20578;-62
2022/06/05 05:01:17;;;;;;;6.50;6.20;;;;;;;22.07;85.98;100552.03;5049220;28;20029;-62
2022/06/05 05:03:43;;;;;;;6.63;6.32;;;;;;;21.84;87.99;100548.72;5045642;28;20492;-61
2022/06/05 05:06:09;;;;;;;6.57;6.28;;;;;;;22.04;87.69;100557.13;5048090;28;20031;-62
2022/06/05 05:08:34;;;;;;;6.57;6.28;;;;;;;22.23;86.54;100553.06;5046784;28;20024;-61
2022/06/05 05:11:00;;;;;;;6.50;6.20;;;;;;;22.69;83.95;100548.19;5053232;28;20024;-61
2022/06/05 05:13:26;;;;;;;6.70;6.40;;;;;;;23.40;80.12;100551.59;5052164;28;20040;-61
2022/06/05 05:15:53;;;;;;;6.60;6.30;;;;;;;23.90;77.21;100555.75;5042951;28;20056;-61
2022/06/05 05:18:19;;;;;;;6.60;6.30;;;;;;;23.76;77.12;100560.00;5050820;28;20086;-61
2022/06/05 05:20:45;;;;;;;6.40;6.10;;;;;;;23.76;77.28;100565.41;5051846;28;20489;-60
2022/06/05 05:23:11;;;;;;;6.53;6.22;;;;;;;22.82;81.49;100555.91;5063080;28;20047;-61
2022/06/05 05:25:36;;;;;;;6.47;6.18;;;;;;;23.01;80.68;100561.81;5052862;28;20029;-62
2022/06/05 05:28:02;;;;;;;6.60;6.30;;;;;;;22.76;81.61;100550.69;5052928;28;20021;-60
2022/06/05 05:30:27;;;;;;;6.50;6.20;;;;;;;22.59;82.44;100548.09;5051734;28;20028;-61
2022/06/05 05:32:53;;;;;;;6.60;6.30;;;;;;;22.43;84.11;100562.50;5052851;28;20033;-60
2022/06/05 05:35:20;;;;;;;6.55;6.25;;;;;;;22.33;85.18;100564.03;5052908;28;20017;-60
2022/06/05 05:37:46;;;;;;;6.70;6.40;;;;;;;22.18;86.83;100561.13;5049105;28;20025;-60
2022/06/05 05:42:56;;;;;;;;;;;;;;;21.90;89.15;100569.34;5053233;28;20404;-60
2022/06/05 05:45:22;;;;;;;6.10;5.90;;;;;;;22.03;88.97;100561.72;5051984;28;19920;-60
2022/06/05 05:47:47;;;;;;;6.25;6.05;;;;;;;21.97;89.38;100561.88;5048051;28;20452;-60
2022/06/05 05:50:16;;;;;;;6.68;6.38;;;;;;;22.03;89.55;100566.28;5041545;28;20087;-61
2022/06/05 05:52:44;;;;;;;6.45;6.15;;;;;;;22.09;88.46;100576.13;5059784;28;20127;-60
2022/06/05 05:55:15;;;;;;;6.45;6.15;;;;;;;22.06;88.44;100560.38;5056335;28;20033;-62
2022/06/05 05:57:41;;;;;;;6.40;6.10;;;;;;;22.52;86.94;100574.50;5052155;28;20082;-62
2022/06/05 06:00:11;;;;;;;6.60;6.30;;;;;;;22.73;85.39;100572.84;5044631;28;20399;-60
2022/06/05 06:02:38;;;;;;;6.70;6.40;;;;;;;22.48;86.78;100562.56;5046893;28;20033;-62
2022/06/05 06:05:05;;;;;;;6.68;6.38;;;;;;;22.68;85.50;100564.66;5060347;28;20032;-60
2022/06/05 06:07:30;;;;;;;6.50;6.20;;;;;;;22.94;83.53;100566.63;5051982;28;20036;-61
2022/06/05 06:09:56;;;;;;;6.40;6.10;;;;;;;22.70;83.28;100566.06;5049634;28;20151;-61
2022/06/05 06:12:24;;;;;;;6.35;6.07;;;;;;;23.40;80.28;100569.72;5052101;28;20388;-61
2022/06/05 06:14:51;;;;;;;6.60;6.30;;;;;;;23.31;80.65;100568.56;5058905;28;20090;-60
2022/06/05 06:17:16;;;;;;;6.60;6.30;;;;;;;23.25;79.82;100569.59;5055794;28;20036;-60
2022/06/05 06:19:42;;;;;;;6.50;6.20;;;;;;;23.00;80.90;100562.09;5047476;28;20059;-61
2022/06/05 06:22:07;;;;;;;6.50;6.20;;;;;;;22.98;81.98;100569.63;5057187;28;20074;-60
2022/06/05 06:24:33;;;;;;;6.78;6.47;;;;;;;23.65;78.82;100566.41;5051624;28;20109;-61
2022/06/05 06:26:59;;;;;;;6.70;6.40;;;;;;;24.90;73.34;100568.34;5051162;28;20388;-62
2022/06/05 06:29:24;;;;;;;6.70;6.40;;;;;;;24.39;73.13;100576.38;5051968;28;20037;-62
2022/06/05 06:31:50;;;;;;;6.80;6.50;;;;;;;26.07;64.93;100581.94;5051731;28;20114;-60
2022/06/05 06:34:16;;;;;;;6.93;6.63;;;;;;;25.65;66.41;100568.72;5051958;28;20029;-61
2022/06/05 06:36:41;;;;;;;6.70;6.40;;;;;;;25.00;68.44;100569.22;5050582;28;20025;-61
2022/06/05 06:39:07;;;;;;;6.65;6.35;;;;;;;24.42;71.64;100579.34;5051526;28;20107;-62
2022/06/05 06:41:32;;;;;;;6.90;6.60;;;;;;;24.42;71.23;100578.53;5050941;28;20032;-60
2022/06/05 06:43:58;;;;;;;6.78;6.47;;;;;;;24.17;72.55;100588.16;5037254;28;20396;-60
2022/06/05 06:46:24;;;;;;;6.68;6.38;;;;;;;23.85;73.91;100584.72;5044974;28;20045;-62
2022/06/05 06:48:50;;;;;;;6.50;6.20;;;;;;;23.60;75.07;100593.44;5051498;28;20033;-60
2022/06/05 06:51:16;;;;;;;6.95;6.65;;;;;;;26.52;64.51;100597.34;5051712;28;20029;-61
2022/06/05 06:53:42;;;;;;;6.82;6.53;;;;;;;28.21;56.15;100599.59;5044940;28;20113;-62
2022/06/05 06:56:10;;;;;;;6.88;6.57;;;;;;;27.07;59.94;100594.59;5041654;28;20075;-62
2022/06/05 06:58:36;;;;;;;6.68;6.38;;;;;;;27.65;58.06;100591.97;5044478;28;20116;-61
2022/06/05 07:01:01;;;;;;;7.00;6.70;;;;;;;29.30;52.05;100594.03;5036135;28;20124;-62
2022/06/05 07:03:27;;;;;;;7.03;6.72;;;;;;;30.94;47.93;100595.28;5057233;28;20024;-60
2022/06/05 07:05:52;;;;;;;7.00;6.70;;;;;;;30.27;48.06;100592.34;5047215;28;20963;-60
2022/06/05 07:08:18;;;;;;;6.90;6.60;;;;;;;28.24;53.70;100599.00;5052709;28;20447;-60
2022/06/05 07:10:43;;;;;;;6.90;6.60;;;;;;;28.10;54.31;100604.34;5047504;28;20033;-60
2022/06/05 07:13:09;;;;;;;6.78;6.47;;;;;;;27.26;56.30;100610.00;5045584;28;20071;-62
2022/06/05 07:15:35;;;;;;;6.80;6.50;;;;;;;26.83;58.71;100602.63;5048577;28;20112;-61
2022/06/05 07:18:05;;;;;;;6.80;6.50;;;;;;;26.25;59.19;100603.13;5057060;28;20481;-62
2022/06/05 07:20:35;;;;;;;6.72;6.43;;;;;;;25.89;61.04;100613.25;5047240;28;20055;-61
2022/06/05 07:23:02;;;;;;;6.82;6.53;;;;;;;24.85;65.44;100604.47;5047833;28;20028;-60
2022/06/05 07:25:28;;;;;;;6.88;6.57;;;;;;;24.77;66.88;100610.41;5053277;28;20032;-61
2022/06/05 07:27:54;;;;;;;6.65;6.35;;;;;;;24.66;67.52;100606.81;5052502;28;20032;-61
2022/06/05 07:30:19;;;;;;;6.80;6.50;;;;;;;24.42;68.95;100603.75;5050921;28;20060;-61
2022/06/05 07:32:47;;;;;;;6.68;6.38;;;;;;;24.04;71.10;100610.31;5050843;28;20195;-59
2022/06/05 07:35:13;;;;;;;6.80;6.50;;;;;;;24.10;70.67;100608.47;5053886;28;20017;-59
2022/06/05 07:37:39;;;;;;;6.80;6.50;;;;;;;23.90;72.19;100614.56;5056834;28;20024;-61
2022/06/05 07:40:06;;;;;;;6.70;6.40;;;;;;;23.43;73.51;100609.84;5051736;28;20493;-60
2022/06/05 07:42:31;;;;;;;6.80;6.50;;;;;;;23.31;74.24;100620.00;5057967;28;20058;-61
2022/06/05 07:44:57;;;;;;;6.88;6.57;;;;;;;23.07;75.79;100611.41;5082054;28;20045;-61
2022/06/05 07:47:22;;;;;;;6.70;6.40;;;;;;;23.37;74.32;100622.50;5055190;28;20041;-61
2022/06/05 07:49:48;;;;;;;6.85;6.55;;;;;;;23.27;74.64;100619.69;5052859;28;20027;-61
2022/06/05 07:54:57;;;;;;;7.10;6.80;;;;;;;23.13;75.29;100618.47;5048653;28;20096;-61
2022/06/05 07:57:22;;;;;;;7.00;6.70;;;;;;;23.01;75.41;100626.75;5051331;28;20053;-61
2022/06/05 07:59:50;;;;;;;6.88;6.57;;;;;;;23.25;74.25;100621.03;5061147;28;20032;-61
2022/06/05 08:02:25;;;;;;;7.03;6.72;;;;;;;23.47;73.00;100626.38;5048513;28;20086;-61
2022/06/05 08:04:53;;;;;;;6.95;6.65;;;;;;;23.10;74.51;100630.63;5048765;28;20037;-62
2022/06/05 08:07:21;;;;;;;6.97;6.68;;;;;;;23.61;72.21;100638.44;5046571;28;20053;-61
2022/06/05 08:09:47;;;;;;;6.63;6.32;;;;;;;23.52;72.69;100626.44;5050066;28;20538;-61
2022/06/05 08:12:14;;;;;;;6.93;6.63;;;;;;;23.47;72.99;100626.38;5056803;28;20035;-62
2022/06/05 08:14:42;;;;;;;6.78;6.47;;;;;;;23.59;72.34;100632.44;5058101;28;20388;-63
2022/06/05 08:17:12;;;;;;;6.80;6.50;;;;;;;24.46;68.40;100637.41;5052470;28;20421;-61
2022/06/05 08:19:39;;;;;;;6.80;6.50;;;;;;;25.52;63.73;100622.50;5079120;28;20031;-61
2022/06/05 08:22:06;;;;;;;6.75;6.45;;;;;;;26.04;61.02;100626.00;5055689;28;20057;-63
2022/06/05 08:24:32;;;;;;;6.80;6.50;;;;;;;25.01;64.52;100624.31;5052184;28;20040;-61
2022/06/05 08:26:57;;;;;;;6.68;6.38;;;;;;;25.38;62.78;100620.59;5059239;28;20017;-61
2022/06/05 08:29:23;;;;;;;6.70;6.40;;;;;;;25.40;62.54;100629.28;5049363;28;20037;-60
2022/06/05 08:31:48;;;;;;;6.57;6.28;;;;;;;25.27;62.96;100619.78;5039110;28;20047;-62
2022/06/05 08:34:14;;;;;;;6.55;6.25;;;;;;;26.24;58.74;100625.97;5057344;28;20304;-62
2022/06/05 08:36:41;;;;;;;7.00;6.70;;;;;;;28.08;53.20;100634.63;5044596;28;20025;-61
2022/06/05 08:42:11;;;;;;;7.00;6.70;;;;;;;27.66;53.38;100637.19;5049574;28;20036;-62
2022/06/05 08:44:44;;;;;;;6.63;6.32;;;;;;;27.01;55.92;100629.19;5053306;28;20064;-61
2022/06/05 08:47:26;;;;;;;6.90;6.60;;;;;;;27.88;52.41;100636.75;5051035;28;20037;-61
2022/06/05 08:50:19;;;;;;;6.93;6.63;;;;;;;27.53;52.39;100633.19;5053486;28;20476;-61
2022/06/05 08:52:50;;;;;;;6.75;6.45;;;;;;;27.16;53.86;100642.72;5054055;28;20029;-61
2022/06/05 08:55:25;;;;;;;6.90;6.60;;;;;;;26.77;54.95;100639.13;5042693;28;20017;-61
2022/06/05 08:57:53;;;;;;;6.85;6.55;;;;;;;27.36;53.22;100640.97;5051688;28;20032;-61
2022/06/05 09:00:36;;;;;;;6.65;6.35;;;;;;;26.83;54.46;100630.66;5049129;28;20025;-61
2022/06/05 09:03:07;;;;;;;6.80;6.50;;;;;;;26.81;54.19;100632.00;5046208;28;20489;-60
2022/06/05 09:05:50;;;;;;;6.70;6.40;;;;;;;27.39;51.45;100637.66;5048828;28;20037;-61
2022/06/05 09:08:19;;;;;;;7.00;6.70;;;;;;;26.98;52.73;100638.72;5059044;28;20056;-62
2022/06/05 09:10:48;;;;;;;7.00;6.70;;;;;;;28.18;49.27;100641.88;5048684;28;20049;-62
2022/06/05 09:13:19;;;;;;;6.78;6.47;;;;;;;27.25;51.18;100635.59;5057876;28;20037;-61
2022/06/05 09:16:01;;;;;;;6.68;6.38;;;;;;;27.08;50.83;100635.16;5047907;28;20054;-61
2022/06/05 09:18:35;;;;;;;7.00;6.70;;;;;;;27.59;49.49;100626.63;5053595;28;20492;-61
2022/06/05 09:21:05;;;;;;;;;;;;;;;27.87;48.34;100626.94;5052999;28;20037;-61
2022/06/05 09:23:46;;;;;;;7.00;6.70;;;;;;;28.01;49.16;100642.34;5053635;28;19974;-61
2022/06/05 09:26:22;;;;;;;6.72;6.43;;;;;;;27.04;51.42;100633.28;5042917;28;20033;-62
2022/06/05 09:29:19;;;;;;;7.00;6.70;;;;;;;27.17;50.38;100641.63;5060852;28;20028;-60
2022/06/05 09:32:16;;;;;;;6.57;6.28;;;;;;;27.59;49.15;100629.34;5056425;28;20056;-62
2022/06/05 09:34:54;;;;;;;6.75;6.45;;;;;;;27.38;49.86;100639.56;5062527;28;20035;-61
2022/06/05 09:37:41;;;;;;;6.80;6.50;;;;;;;27.56;49.72;100627.19;5052825;28;20120;-61
2022/06/05 09:40:37;;;;;;;6.97;6.68;;;;;;;27.55;49.22;100625.56;5051112;28;20037;-61
2022/06/05 09:43:14;;;;;;;6.70;6.40;;;;;;;26.73;51.85;100625.25;5053075;28;20039;-60
2022/06/05 09:45:49;;;;;;;6.82;6.53;;;;;;;26.22;55.21;100628.16;5055542;28;20129;-61
2022/06/05 09:48:36;;;;;;;6.90;6.60;;;;;;;26.58;54.60;100638.91;5066574;28;20409;-61
2022/06/05 09:51:06;;;;;;;6.78;6.47;;;;;;;26.21;56.06;100625.69;5063388;28;20029;-61
2022/06/05 09:53:42;;;;;;;6.75;6.45;;;;;;;26.02;56.96;100639.88;5057397;28;20024;-61
2022/06/05 09:56:13;;;;;;;6.80;6.50;;;;;;;26.38;56.13;100634.34;5056374;28;20031;-61
2022/06/05 09:58:52;;;;;;;7.00;6.70;;;;;;;27.05;54.56;100646.63;5060175;28;20495;-61
2022/06/05 10:01:24;;;;;;;6.60;6.30;;;;;;;26.47;55.85;100634.63;5052116;28;20039;-61
2022/06/05 10:03:50;;;;;;;7.00;6.70;;;;;;;26.42;56.32;100641.69;5062379;28;20017;-60
2022/06/05 10:06:35;;;;;;;7.10;6.80;;;;;;;26.91;54.80;100637.41;5046583;28;20053;-60
2022/06/05 10:09:16;;;;;;;7.35;7.05;;;;;;;26.90;54.20;100642.06;5058344;28;20033;-59
2022/06/05 10:11:57;;;;;;;6.80;6.50;;;;;;;25.94;56.64;100634.19;5053486;28;20024;-60
2022/06/05 10:14:38;;;;;;;6.75;6.45;;;;;;;26.66;54.96;100649.22;5043575;28;20053;-60
2022/06/05 10:17:31;;;;;;;6.70;6.40;;;;;;;26.21;56.57;100637.38;5054269;28;20032;-61
2022/06/05 10:20:02;;;;;;;6.65;6.35;;;;;;;25.86;57.65;100641.00;5045169;28;20119;-62
2022/06/05 10:22:40;;;;;;;6.88;6.57;;;;;;;26.26;56.66;100644.72;5058768;28;20487;-61
2022/06/05 10:25:29;;;;;;;6.90;6.60;;;;;;;26.45;55.94;100640.34;5052335;28;20436;-61
2022/06/05 10:28:04;;;;;;;7.10;6.80;;;;;;;26.46;55.12;100658.28;5054570;28;20304;-60
2022/06/05 10:30:33;;;;;;;7.00;6.70;;;;;;;26.66;54.48;100650.06;5061555;28;20522;-60
2022/06/05 10:33:10;;;;;;;7.00;6.70;;;;;;;26.11;55.93;100659.97;5060619;28;20056;-60
2022/06/05 10:35:55;;;;;;;6.90;6.60;;;;;;;25.64;57.01;100660.28;5049261;28;20032;-62
2022/06/05 10:38:39;;;;;;;6.60;6.30;;;;;;;25.30;56.99;100662.66;5050451;28;20045;-61
2022/06/05 10:41:20;;;;;;;7.00;6.70;;;;;;;25.72;56.09;100664.38;5058405;28;20036;-61
2022/06/05 10:44:04;;;;;;;6.85;6.55;;;;;;;25.73;56.72;100671.44;5051353;28;20021;-60
2022/06/05 10:46:32;;;;;;;6.87;6.57;;;;;;;25.45;57.74;100667.31;5053108;28;20045;-61
2022/06/05 10:49:18;;;;;;;7.00;6.70;;;;;;;26.25;55.10;100670.28;5052063;28;20284;-61
2022/06/05 10:52:01;;;;;;;6.57;6.28;;;;;;;25.91;56.50;100673.59;5043520;28;20034;-63
2022/06/05 10:54:39;;;;;;;6.70;6.40;;;;;;;25.40;59.47;100672.72;5046035;28;20468;-61
2022/06/05 10:57:09;;;;;;;6.80;6.50;;;;;;;25.17;60.04;100665.91;5046131;28;20029;-62
2022/06/05 10:59:50;;;;;;;6.90;6.60;;;;;;;24.69;61.67;100674.13;5049171;28;20028;-63
2022/06/05 11:02:42;;;;;;;6.78;6.47;;;;;;;24.41;63.17;100674.53;5053801;28;20029;-60
2022/06/05 11:05:51;;;;;;;6.80;6.50;;;;;;;24.51;63.02;100688.94;5051475;28;20052;-62
2022/06/05 11:08:54;;;;;;;6.63;6.32;;;;;;;24.37;63.60;100684.25;5033732;28;20161;-62
2022/06/05 11:15:05;;;;;;;6.70;6.40;;;;;;;24.99;61.58;100678.84;5051049;28;20095;-61
2022/06/05 11:17:36;;;;;;;6.85;6.55;;;;;;;25.17;59.65;100671.31;5026495;28;20481;-62
2022/06/05 11:20:16;;;;;;;6.90;6.60;;;;;;;25.00;59.13;100661.50;5054970;28;20435;-61
2022/06/05 11:23:03;;;;;;;6.68;6.38;;;;;;;24.75;60.43;100675.78;5055143;28;20075;-61
2022/06/05 11:25:49;;;;;;;6.75;6.45;;;;;;;24.92;60.34;100675.56;5053205;28;20025;-61
2022/06/05 11:28:56;;;;;;;6.60;6.30;;;;;;;24.40;62.17;100679.13;5052254;28;20024;-62
2022/06/05 11:31:30;;;;;;;6.70;6.40;;;;;;;24.48;62.35;100677.81;5030973;28;20037;-60
2022/06/05 11:34:01;;;;;;;;;;;;;;;24.73;62.13;100679.84;5053588;28;20400;-61
2022/06/05 11:36:37;;;;;;;6.82;6.53;;;;;;;24.11;64.05;100673.22;5052915;28;19919;-61
2022/06/05 11:39:24;;;;;;;6.70;6.40;;;;;;;24.07;64.35;100685.66;5053444;28;20035;-62
2022/06/05 11:42:20;;;;;;;6.60;6.30;;;;;;;24.63;63.12;100687.94;5054855;28;20059;-61
2022/06/05 11:45:26;;;;;;;6.75;6.45;;;;;;;24.33;64.33;100683.97;5041913;28;20053;-62
2022/06/05 11:48:02;;;;;;;6.68;6.38;;;;;;;24.51;62.75;100688.13;5052961;28;20029;-62
2022/06/05 11:50:40;;;;;;;6.65;6.35;;;;;;;24.50;63.31;100681.91;5054576;28;20553;-62
2022/06/05 11:53:45;;;;;;;6.80;6.50;;;;;;;25.00;62.01;100683.19;5054388;28;20116;-62
2022/06/05 11:56:17;;;;;;;;;;;;;;;24.61;61.88;100684.69;5039221;28;20025;-61
2022/06/05 11:58:56;;;;;;;6.68;6.38;;;;;;;24.88;61.67;100690.75;5053530;28;19912;-62
2022/06/05 12:01:29;;;;;;;6.95;6.65;;;;;;;25.15;60.93;100687.88;5053447;28;20397;-61
2022/06/05 12:04:33;;;;;;;6.78;6.47;;;;;;;24.65;63.05;100688.47;5043251;28;20068;-61